Time;durP1;ratioP1;P1;durP2;ratioP2;P2;SDS_P1;SDS_P2;PMS_P1;PMS_P2;Temp;Humidity;BMP_temperature;BMP_pressure;BME280_temperature;BME280_humidity;BME280_pressure;Samples;Min_cycle;Max_cycle;Signal;HPM_P1;HPM_P2
2020/12/12 00:00:39;;;;;;;11.00;9.90;;;5.10;7.40;;;;;;5012837;28;20762;-63
2020/12/12 00:03:05;;;;;;;13.70;10.50;;;5.00;23.60;;;;;;5012302;28;20820;-64
2020/12/12 00:05:31;;;;;;;12.23;10.30;;;5.10;15.10;;;;;;5012423;28;20842;-63
2020/12/12 00:07:57;;;;;;;12.48;10.05;;;5.10;2.00;;;;;;5012798;28;20420;-64
2020/12/12 00:10:26;;;;;;;13.30;11.82;;;5.10;1.00;;;;;;5012232;28;20428;-64
2020/12/12 00:12:52;;;;;;;11.95;9.90;;;5.10;1.00;;;;;;5012334;28;20429;-63
2020/12/12 00:15:18;;;;;;;12.18;10.32;;;5.20;1.00;;;;;;5012508;28;20463;-63
2020/12/12 00:17:46;;;;;;;11.77;10.40;;;5.20;1.00;;;;;;5012458;28;20421;-63
2020/12/12 00:20:12;;;;;;;13.02;10.80;;;5.10;1.00;;;;;;5012206;28;20421;-63
2020/12/12 00:22:38;;;;;;;11.60;10.40;;;5.10;1.00;;;;;;5012299;28;20444;-63
2020/12/12 00:25:05;;;;;;;11.30;10.10;;;5.00;1.00;;;;;;5012318;28;20829;-63
2020/12/12 00:27:31;;;;;;;13.17;11.03;;;5.10;1.60;;;;;;5011929;28;20475;-65
2020/12/12 00:29:57;;;;;;;11.18;9.88;;;5.20;1.00;;;;;;5012262;28;20471;-64
2020/12/12 00:32:23;;;;;;;13.20;10.77;;;5.20;1.00;;;;;;5012319;28;20444;-64
2020/12/12 00:34:50;;;;;;;11.40;10.10;;;5.30;1.00;;;;;;5012074;28;20408;-64
2020/12/12 00:37:18;;;;;;;14.95;9.77;;;5.30;1.00;;;;;;5012103;28;20417;-63
2020/12/12 00:39:44;;;;;;;12.15;10.40;;;5.40;1.00;;;;;;5011720;28;20539;-63
2020/12/12 00:42:11;;;;;;;11.82;10.63;;;5.40;1.00;;;;;;5012333;28;20463;-63
2020/12/12 00:44:37;;;;;;;11.65;9.85;;;5.30;1.00;;;;;;5012359;28;20417;-63
2020/12/12 00:47:03;;;;;;;11.00;9.77;;;5.30;1.00;;;;;;5011741;28;20953;-63
2020/12/12 00:49:30;;;;;;;10.98;9.77;;;5.30;1.40;;;;;;5011811;28;20412;-64
2020/12/12 00:51:57;;;;;;;12.00;10.00;;;5.40;1.00;;;;;;5011698;28;20408;-64
2020/12/12 00:54:23;;;;;;;11.77;9.80;;;5.40;1.00;;;;;;5011675;28;20912;-64
2020/12/12 00:56:49;;;;;;;11.85;10.02;;;5.40;1.00;;;;;;5012063;28;20486;-64
2020/12/12 00:59:18;;;;;;;10.13;9.07;;;5.40;1.00;;;;;;5011522;28;20409;-64
2020/12/12 01:01:44;;;;;;;10.63;9.52;;;5.50;1.00;;;;;;5011729;28;20508;-64
2020/12/12 01:04:10;;;;;;;12.35;10.15;;;5.50;1.00;;;;;;5011741;28;20405;-64
2020/12/12 01:06:37;;;;;;;11.20;9.80;;;5.60;1.00;;;;;;5011901;28;20413;-64
2020/12/12 01:09:03;;;;;;;10.52;9.43;;;5.60;1.00;;;;;;5011389;28;20459;-64
2020/12/12 01:11:30;;;;;;;11.20;10.00;;;5.60;1.00;;;;;;5011595;28;20413;-64
2020/12/12 01:13:56;;;;;;;10.77;9.38;;;5.60;1.00;;;;;;5011411;28;20482;-64
2020/12/12 01:16:22;;;;;;;13.73;10.23;;;5.60;1.00;;;;;;5011087;28;21034;-64
2020/12/12 01:18:49;;;;;;;11.32;9.80;;;5.50;1.00;;;;;;5011409;28;20474;-63
2020/12/12 01:21:16;;;;;;;13.32;10.00;;;5.40;1.00;;;;;;5011496;28;20413;-63
2020/12/12 01:23:42;;;;;;;11.40;9.13;;;5.50;1.80;;;;;;5011002;28;20483;-65
2020/12/12 01:26:09;;;;;;;10.13;9.10;;;5.60;1.00;;;;;;5011553;28;20420;-65
2020/12/12 01:28:36;;;;;;;11.57;9.18;;;5.50;1.00;;;;;;5011144;28;20417;-64
2020/12/12 01:31:02;;;;;;;10.82;9.30;;;5.60;1.00;;;;;;5011563;28;20408;-64
2020/12/12 01:33:28;;;;;;;10.85;9.60;;;5.50;1.90;;;;;;5011394;28;20966;-64
2020/12/12 01:35:54;;;;;;;10.80;9.48;;;5.60;16.40;;;;;;5011248;28;20416;-66
2020/12/12 01:38:21;;;;;;;12.23;9.70;;;5.60;31.00;;;;;;5011002;28;20417;-65
2020/12/12 01:40:47;;;;;;;11.23;9.40;;;5.60;91.00;;;;;;5010997;28;20416;-64
2020/12/12 01:43:14;;;;;;;12.70;10.30;;;5.60;99.90;;;;;;5011317;28;20409;-63
2020/12/12 01:45:40;;;;;;;13.45;10.80;;;5.60;99.90;;;;;;5011001;28;20512;-64
2020/12/12 01:48:08;;;;;;;14.50;10.70;;;5.50;99.90;;;;;;5011037;28;20483;-64
2020/12/12 01:50:35;;;;;;;14.50;11.27;;;5.50;99.90;;;;;;5010880;28;20818;-64
2020/12/12 01:53:02;;;;;;;14.52;11.52;;;5.40;99.90;;;;;;5010851;28;20428;-64
2020/12/12 01:55:30;;;;;;;15.50;11.70;;;5.40;99.90;;;;;;5010941;28;20451;-64
2020/12/12 01:57:56;;;;;;;15.18;11.60;;;5.30;99.90;;;;;;5010990;28;20459;-63
2020/12/12 02:00:24;;;;;;;16.20;12.60;;;5.30;1.00;;;;;;5011077;28;20413;-64
2020/12/12 02:02:53;;;;;;;15.90;12.18;;;5.30;1.00;;;;;;5011073;28;20409;-64
2020/12/12 02:05:40;;;;;;;16.20;13.25;;;5.20;1.00;;;;;;5010719;28;20885;-64
2020/12/12 02:08:11;;;;;;;17.88;13.38;;;5.20;1.00;;;;;;5010979;28;20789;-64
2020/12/12 02:10:39;;;;;;;17.52;13.77;;;5.10;99.90;;;;;;5010808;28;20417;-64
2020/12/12 02:13:06;;;;;;;17.73;12.82;;;5.10;99.90;;;;;;5010902;28;20536;-64
2020/12/12 02:15:34;;;;;;;19.35;14.82;;;5.10;99.90;;;;;;5010908;28;20412;-64
2020/12/12 02:18:01;;;;;;;20.05;14.65;;;5.10;99.90;;;;;;5010489;28;20467;-64
2020/12/12 02:20:27;;;;;;;21.30;14.88;;;5.10;99.90;;;;;;5010866;28;20412;-64
2020/12/12 02:22:55;;;;;;;19.27;13.57;;;5.10;99.90;;;;;;5010775;28;20409;-65
2020/12/12 02:25:21;;;;;;;20.65;14.95;;;5.10;1.00;;;;;;5010879;28;20536;-64
2020/12/12 02:27:49;;;;;;;21.05;15.77;;;5.00;99.90;;;;;;5012896;28;20486;-63
2020/12/12 02:30:15;;;;;;;19.35;14.55;;;5.10;1.00;;;;;;5013970;28;20417;-64
2020/12/12 02:32:42;;;;;;;19.07;15.00;;;5.10;1.00;;;;;;5014558;28;20412;-64
2020/12/12 02:35:08;;;;;;;20.90;16.20;;;5.10;1.00;;;;;;5014314;28;20424;-66
2020/12/12 02:37:34;;;;;;;19.52;14.98;;;5.10;1.00;;;;;;5014193;28;20829;-65
2020/12/12 02:40:01;;;;;;;21.42;15.80;;;5.10;1.00;;;;;;5014256;28;20478;-65
2020/12/12 02:42:27;;;;;;;19.55;14.70;;;5.10;1.00;;;;;;5014230;28;20427;-64
2020/12/12 02:44:54;;;;;;;19.75;14.23;;;5.10;1.00;;;;;;5014170;28;20416;-64
2020/12/12 02:47:21;;;;;;;20.42;15.65;;;5.10;1.00;;;;;;5014034;28;20421;-66
2020/12/12 02:50:02;;;;;;;19.20;14.90;;;5.10;1.00;;;;;;5014059;28;20484;-66
2020/12/12 02:52:28;;;;;;;20.50;14.52;;;5.10;1.00;;;;;;5013944;28;20416;-65
2020/12/12 02:54:54;;;;;;;21.83;15.05;;;5.10;1.00;;;;;;5014064;28;20470;-64
2020/12/12 02:57:21;;;;;;;18.25;13.95;;;5.10;1.00;;;;;;5013741;28;20848;-66
2020/12/12 02:59:47;;;;;;;19.30;14.93;;;5.10;1.00;;;;;;5013740;28;20785;-64
2020/12/12 03:02:13;;;;;;;18.93;13.80;;;5.20;1.00;;;;;;5014025;28;20467;-64
2020/12/12 03:04:39;;;;;;;18.42;14.48;;;5.10;1.00;;;;;;5013817;28;20405;-65
2020/12/12 03:07:05;;;;;;;18.00;13.60;;;5.20;1.00;;;;;;5013735;28;20451;-65
2020/12/12 03:09:32;;;;;;;17.73;13.35;;;5.20;1.00;;;;;;5013614;28;20420;-65
2020/12/12 03:11:58;;;;;;;17.17;13.20;;;5.30;1.00;;;;;;5013643;28;20464;-65
2020/12/12 03:14:25;;;;;;;18.50;13.50;;;5.30;99.90;;;;;;5013527;28;20986;-65
2020/12/12 03:16:51;;;;;;;16.50;12.90;;;5.30;1.00;;;;;;5013513;28;20412;-65
2020/12/12 03:19:17;;;;;;;17.90;13.23;;;5.30;99.90;;;;;;5013542;28;20498;-65
2020/12/12 03:21:43;;;;;;;17.77;13.40;;;5.30;99.90;;;;;;5013600;28;20490;-64
2020/12/12 03:24:09;;;;;;;17.13;12.90;;;5.30;99.90;;;;;;5013310;28;20409;-65
2020/12/12 03:26:35;;;;;;;17.70;13.75;;;5.30;99.90;;;;;;5013318;28;20413;-66
2020/12/12 03:29:01;;;;;;;18.23;13.45;;;5.30;99.90;;;;;;5013154;28;20782;-66
2020/12/12 03:31:28;;;;;;;16.63;13.33;;;5.30;99.90;;;;;;5013448;28;20419;-66
2020/12/12 03:33:54;;;;;;;18.77;13.07;;;5.30;99.90;;;;;;5013300;28;20429;-65
2020/12/12 03:36:20;;;;;;;17.70;13.45;;;5.30;99.90;;;;;;5013109;28;20413;-64
2020/12/12 03:38:47;;;;;;;17.38;13.65;;;5.30;99.90;;;;;;5012773;28;20905;-64
2020/12/12 03:41:13;;;;;;;17.33;12.95;;;5.30;99.90;;;;;;5012841;28;20413;-65
2020/12/12 03:43:39;;;;;;;16.97;11.97;;;5.30;1.00;;;;;;5013365;28;20445;-64
2020/12/12 03:46:05;;;;;;;16.73;12.85;;;5.40;99.90;;;;;;5013308;28;20416;-65
2020/12/12 03:48:32;;;;;;;17.95;12.77;;;5.40;99.90;;;;;;5012880;28;20416;-65
2020/12/12 03:50:58;;;;;;;17.52;13.75;;;5.30;99.90;;;;;;5012845;28;20785;-65
2020/12/12 03:53:24;;;;;;;16.25;12.70;;;5.40;99.90;;;;;;5012675;28;20428;-66
2020/12/12 03:55:50;;;;;;;16.02;11.82;;;5.30;99.90;;;;;;5012733;28;20459;-65
2020/12/12 03:58:16;;;;;;;17.17;12.20;;;5.40;99.90;;;;;;5012715;28;20885;-65
2020/12/12 04:00:42;;;;;;;15.90;12.77;;;5.40;99.90;;;;;;5012620;28;20413;-65
2020/12/12 04:03:08;;;;;;;15.38;11.40;;;5.40;99.90;;;;;;5012794;28;20408;-65
2020/12/12 04:05:35;;;;;;;16.40;12.38;;;5.50;99.90;;;;;;5012566;28;20463;-65
2020/12/12 04:08:02;;;;;;;16.17;12.20;;;5.50;99.90;;;;;;5012659;28;20413;-64
2020/12/12 04:10:28;;;;;;;15.85;12.35;;;5.60;99.90;;;;;;5012438;28;20412;-65
2020/12/12 04:12:54;;;;;;;15.02;12.70;;;5.50;99.90;;;;;;5012553;28;20409;-64
2020/12/12 04:15:20;;;;;;;17.45;12.23;;;5.40;99.90;;;;;;5012804;28;20417;-64
2020/12/12 04:17:46;;;;;;;18.10;13.27;;;5.40;99.90;;;;;;5012266;28;20417;-65
2020/12/12 04:20:12;;;;;;;18.30;13.25;;;5.40;1.00;;;;;;5012235;28;20944;-65
2020/12/12 04:22:39;;;;;;;15.30;11.85;;;5.50;1.00;;;;;;5012520;28;20409;-65
2020/12/12 04:25:05;;;;;;;15.52;11.48;;;5.50;1.00;;;;;;5012153;28;20483;-65
2020/12/12 04:27:31;;;;;;;16.67;12.52;;;5.50;99.90;;;;;;5012365;28;20412;-65
2020/12/12 04:29:58;;;;;;;16.00;11.77;;;5.50;99.90;;;;;;5012130;28;20504;-65
2020/12/12 04:32:24;;;;;;;15.55;12.07;;;5.40;99.90;;;;;;5012461;28;20417;-65
2020/12/12 04:34:50;;;;;;;17.95;13.40;;;5.40;1.00;;;;;;5012097;28;20479;-65
2020/12/12 04:37:16;;;;;;;17.95;12.77;;;5.40;1.00;;;;;;5011944;28;20417;-65
2020/12/12 04:39:43;;;;;;;16.90;13.10;;;5.40;1.00;;;;;;5011907;28;20413;-65
2020/12/12 04:42:11;;;;;;;19.80;13.70;;;5.50;1.00;;;;;;5011805;28;20885;-65
2020/12/12 04:44:38;;;;;;;17.02;13.73;;;5.50;1.00;;;;;;5012832;28;20459;-65
2020/12/12 04:47:05;;;;;;;15.98;12.82;;;5.60;1.00;;;;;;5012488;28;20413;-64
2020/12/12 04:49:32;;;;;;;15.10;12.35;;;5.50;99.90;;;;;;5011458;28;20967;-66
2020/12/12 04:52:02;;;;;;;15.80;11.90;;;5.60;1.00;;;;;;5011976;28;20412;-65
2020/12/12 04:54:31;;;;;;;15.65;11.73;;;5.60;99.90;;;;;;5011575;28;20783;-64
2020/12/12 04:57:02;;;;;;;15.95;11.35;;;5.70;99.90;;;;;;5011870;28;20479;-65
2020/12/12 04:59:30;;;;;;;16.77;12.48;;;5.70;99.90;;;;;;5011623;28;20421;-65
2020/12/12 05:01:58;;;;;;;15.60;11.75;;;5.60;99.90;;;;;;5011840;28;20416;-64
2020/12/12 05:04:24;;;;;;;15.35;12.05;;;5.70;99.90;;;;;;5011927;28;20459;-66
2020/12/12 05:06:50;;;;;;;13.30;11.70;;;5.80;99.90;;;;;;5011810;28;20478;-65
2020/12/12 05:09:16;;;;;;;15.27;11.88;;;5.70;99.90;;;;;;5012014;28;20463;-65
2020/12/12 05:11:44;;;;;;;15.00;11.60;;;5.80;99.90;;;;;;5012080;28;20463;-65
2020/12/12 05:14:10;;;;;;;14.48;11.50;;;5.80;99.90;;;;;;5011686;28;20432;-66
2020/12/12 05:16:37;;;;;;;14.03;10.70;;;5.90;99.90;;;;;;5011558;28;20471;-65
2020/12/12 05:19:04;;;;;;;15.25;11.32;;;5.80;99.90;;;;;;5011212;28;20479;-64
2020/12/12 05:21:30;;;;;;;13.88;11.65;;;5.90;99.90;;;;;;5011598;28;20443;-65
2020/12/12 05:23:57;;;;;;;14.20;11.13;;;5.90;99.90;;;;;;5011492;28;20467;-64
2020/12/12 05:26:24;;;;;;;14.77;11.23;;;6.00;99.90;;;;;;5011640;28;20408;-65
2020/12/12 05:28:51;;;;;;;13.95;11.32;;;6.00;99.90;;;;;;5011737;28;20412;-65
2020/12/12 05:31:21;;;;;;;16.13;12.00;;;6.00;99.90;;;;;;5011512;28;20413;-65
2020/12/12 05:33:47;;;;;;;15.25;11.60;;;5.90;99.90;;;;;;5011458;28;20436;-64
2020/12/12 05:36:13;;;;;;;15.98;12.15;;;5.90;99.90;;;;;;5011279;28;20421;-65
2020/12/12 05:38:39;;;;;;;16.20;12.03;;;5.90;99.90;;;;;;5011083;28;20489;-64
2020/12/12 05:41:07;;;;;;;16.35;11.93;;;5.90;99.90;;;;;;5011286;28;20412;-65
2020/12/12 05:43:35;;;;;;;15.35;11.88;;;5.90;99.90;;;;;;5011091;28;20825;-64
2020/12/12 05:46:02;;;;;;;18.15;12.05;;;5.90;99.90;;;;;;5011432;28;20412;-64
2020/12/12 05:48:29;;;;;;;17.37;12.63;;;5.80;99.90;;;;;;5011343;28;20412;-64
2020/12/12 05:50:56;;;;;;;16.25;12.57;;;5.80;99.90;;;;;;5011639;28;20418;-65
2020/12/12 05:53:22;;;;;;;13.88;11.43;;;5.70;99.90;;;;;;5011627;28;20425;-65
2020/12/12 05:55:48;;;;;;;15.00;12.00;;;5.90;99.90;;;;;;5011397;28;20409;-65
2020/12/12 05:58:15;;;;;;;14.73;11.38;;;5.90;99.90;;;;;;5011325;28;20417;-64
2020/12/12 06:00:42;;;;;;;15.43;11.73;;;5.90;99.90;;;;;;5010852;28;21058;-64
2020/12/12 06:03:27;;;;;;;17.75;13.15;;;5.90;99.90;;;;;;5014611;28;20495;-65
2020/12/12 06:06:03;;;;;;;13.77;11.07;;;5.90;99.90;;;;;;5014881;28;20449;-66
2020/12/12 06:08:33;;;;;;;16.23;12.35;;;5.80;99.90;;;;;;5014881;28;20412;-64
2020/12/12 06:11:04;;;;;;;16.27;12.57;;;5.90;99.90;;;;;;5014667;28;20439;-66
2020/12/12 06:13:34;;;;;;;16.60;12.05;;;5.90;99.90;;;;;;5014731;28;20844;-64
2020/12/12 06:16:03;;;;;;;16.27;12.73;;;5.90;99.90;;;;;;5014840;28;20463;-65
2020/12/12 06:18:43;;;;;;;17.63;13.18;;;5.90;99.90;;;;;;5014601;28;20416;-65
2020/12/12 06:21:10;;;;;;;17.67;12.68;;;5.80;99.90;;;;;;5014499;28;20420;-65
2020/12/12 06:23:38;;;;;;;16.47;12.93;;;5.80;99.90;;;;;;5014577;28;20408;-65
2020/12/12 06:26:05;;;;;;;16.50;12.40;;;6.20;99.90;;;;;;5014360;28;20881;-65
2020/12/12 06:28:34;;;;;;;16.23;12.93;;;5.90;99.90;;;;;;5014746;28;20420;-65
2020/12/12 06:31:00;;;;;;;17.55;12.52;;;5.90;99.90;;;;;;5014239;28;20412;-66
2020/12/12 06:33:26;;;;;;;17.63;12.88;;;5.90;99.90;;;;;;5014581;28;20471;-65
2020/12/12 06:35:53;;;;;;;15.55;12.57;;;5.90;99.90;;;;;;5014208;28;20955;-65
2020/12/12 06:38:25;;;;;;;16.47;13.20;;;5.90;99.90;;;;;;5014094;28;20502;-65
2020/12/12 06:40:53;;;;;;;14.70;12.27;;;5.90;76.90;;;;;;5014332;28;20452;-64
2020/12/12 06:43:33;;;;;;;14.80;11.93;;;5.90;98.50;;;;;;5014320;28;20421;-64
2020/12/12 06:46:00;;;;;;;16.20;12.10;;;5.90;99.90;;;;;;5014319;28;20456;-65
2020/12/12 06:48:29;;;;;;;15.80;12.32;;;6.00;96.70;;;;;;4984391;28;20415;-64
2020/12/12 06:50:57;;;;;;;15.30;11.70;;;6.00;39.80;;;;;;4975114;28;20474;-64
2020/12/12 06:53:25;;;;;;;14.40;10.30;;;6.10;1.00;;;;;;4975133;28;20503;-65
2020/12/12 06:56:12;;;;;;;14.32;11.30;;;6.10;1.00;;;;;;4974987;28;20416;-64
2020/12/12 06:58:39;;;;;;;12.85;10.07;;;6.10;1.00;;;;;;4974811;28;20470;-64
2020/12/12 07:01:28;;;;;;;15.43;10.90;;;6.10;1.00;;;;;;4974689;28;20506;-64
2020/12/12 07:04:01;;;;;;;14.15;11.00;;;6.10;1.00;;;;;;4974978;28;20943;-65
2020/12/12 07:06:29;;;;;;;14.65;11.98;;;6.10;1.00;;;;;;4974477;28;20951;-65
2020/12/12 07:09:01;;;;;;;15.43;11.20;;;6.10;1.00;;;;;;4974533;28;20451;-65
2020/12/12 07:11:28;;;;;;;16.20;10.63;;;6.20;1.00;;;;;;4974561;28;20412;-64
2020/12/12 07:13:54;;;;;;;12.95;10.82;;;6.20;1.00;;;;;;4974327;28;20427;-65
2020/12/12 07:16:21;;;;;;;13.55;11.00;;;6.20;1.00;;;;;;4974591;28;20452;-65
2020/12/12 07:18:49;;;;;;;12.25;9.45;;;6.20;1.00;;;;;;4974570;28;20474;-65
2020/12/12 07:21:15;;;;;;;14.95;11.10;;;6.30;1.00;;;;;;4974321;28;20488;-66
2020/12/12 07:23:41;;;;;;;13.43;10.73;;;6.20;1.00;;;;;;4974452;28;20487;-64
2020/12/12 07:26:08;;;;;;;12.25;9.88;;;6.20;1.00;;;;;;4974373;28;20412;-64
2020/12/12 07:28:35;;;;;;;12.18;9.80;;;6.20;1.00;;;;;;4974817;28;20541;-63
2020/12/12 07:31:01;;;;;;;14.00;10.35;;;6.20;1.00;;;;;;4974444;28;20416;-64
2020/12/12 07:33:27;;;;;;;14.70;10.67;;;6.30;1.00;;;;;;4974571;28;20490;-65
2020/12/12 07:35:53;;;;;;;12.90;10.50;;;6.30;1.00;;;;;;4974414;28;20419;-65
2020/12/12 07:38:19;;;;;;;12.80;10.75;;;6.30;1.00;;;;;;4974147;28;20459;-64
2020/12/12 07:40:46;;;;;;;13.88;10.75;;;6.30;1.00;;;;;;4974049;28;20420;-64
2020/12/12 07:43:12;;;;;;;13.90;11.20;;;6.20;1.00;;;;;;4974279;28;20474;-63
2020/12/12 07:45:52;;;;;;;13.07;10.77;;;6.20;25.60;;;;;;4974521;28;20832;-64
2020/12/12 07:48:19;;;;;;;12.97;10.93;;;6.20;52.50;;;;;;4974521;28;20510;-64
2020/12/12 07:50:45;;;;;;;15.52;11.70;;;6.20;72.40;;;;;;4973859;28;20434;-63
2020/12/12 07:53:12;;;;;;;14.80;11.57;;;6.20;99.90;;;;;;4974192;28;20416;-64
2020/12/12 07:55:42;;;;;;;15.23;12.15;;;6.20;99.90;;;;;;4972073;28;20423;-64
2020/12/12 07:58:15;;;;;;;14.82;11.52;;;6.20;99.90;;;;;;4973927;28;20426;-64
2020/12/12 08:00:42;;;;;;;15.00;12.00;;;6.20;99.90;;;;;;5004606;28;20420;-63
2020/12/12 08:03:08;;;;;;;16.13;12.10;;;6.30;99.90;;;;;;5012798;28;20417;-63
2020/12/12 08:05:34;;;;;;;13.13;11.30;;;6.30;99.90;;;;;;5012588;28;20417;-64
2020/12/12 08:08:08;;;;;;;14.63;11.07;;;6.40;99.90;;;;;;5012193;28;20416;-65
2020/12/12 08:10:34;;;;;;;13.93;10.93;;;6.40;99.90;;;;;;5012625;28;20412;-66
2020/12/12 08:13:00;;;;;;;14.43;11.10;;;6.40;99.90;;;;;;5012742;28;20614;-65
2020/12/12 08:15:32;;;;;;;15.65;12.52;;;6.30;99.90;;;;;;5012563;28;20480;-64
2020/12/12 08:18:09;;;;;;;16.15;13.52;;;6.30;99.90;;;;;;5012498;28;20420;-65
2020/12/12 08:20:35;;;;;;;16.30;12.53;;;6.30;99.90;;;;;;5012121;28;20943;-64
2020/12/12 08:23:01;;;;;;;16.17;12.43;;;6.40;99.90;;;;;;5012598;28;20462;-65
2020/12/12 08:25:27;;;;;;;14.68;12.00;;;6.40;99.90;;;;;;5011535;28;20462;-65
2020/12/12 08:27:56;;;;;;;16.10;11.85;;;6.40;99.90;;;;;;5004500;28;20903;-64
2020/12/12 08:30:24;;;;;;;16.60;12.23;;;6.30;99.90;;;;;;4992661;28;20418;-64
2020/12/12 08:32:54;;;;;;;14.50;12.25;;;6.40;99.90;;;;;;4992688;28;20415;-66
2020/12/12 08:35:22;;;;;;;15.40;12.15;;;6.40;99.90;;;;;;4992640;28;20426;-64
2020/12/12 08:37:54;;;;;;;16.43;12.43;;;6.50;99.90;;;;;;4992093;28;20876;-64
2020/12/12 08:40:22;;;;;;;17.02;12.30;;;6.50;99.90;;;;;;4991424;28;22293;-66
2020/12/12 08:43:05;;;;;;;15.00;12.05;;;6.40;99.90;;;;;;4992620;28;20407;-66
2020/12/12 08:45:31;;;;;;;17.17;13.27;;;6.50;99.90;;;;;;4990013;28;20886;-65
2020/12/12 08:48:03;;;;;;;17.45;13.48;;;6.50;99.90;;;;;;4991781;28;20965;-65
2020/12/12 08:50:43;;;;;;;16.10;12.60;;;6.50;99.90;;;;;;4991770;28;20426;-63
2020/12/12 08:53:23;;;;;;;18.15;13.70;;;6.50;99.90;;;;;;4991897;28;20414;-66
2020/12/12 08:56:06;;;;;;;17.10;13.02;;;6.50;99.90;;;;;;4991239;28;20477;-66
2020/12/12 08:58:43;;;;;;;17.80;14.27;;;6.50;99.90;;;;;;4992363;28;20422;-65
2020/12/12 09:01:15;;;;;;;17.10;12.82;;;6.50;99.90;;;;;;4992349;28;20485;-65
2020/12/12 09:04:03;;;;;;;18.02;14.15;;;6.60;99.90;;;;;;4993916;28;21173;-65
2020/12/12 09:06:32;;;;;;;19.55;14.70;;;6.60;99.90;;;;;;4992774;28;20418;-65
2020/12/12 09:09:10;;;;;;;18.02;14.05;;;6.60;1.00;;;;;;4992106;28;20724;-64
2020/12/12 09:11:37;;;;;;;18.38;14.50;;;6.60;1.00;;;;;;4991638;28;20418;-65
2020/12/12 09:14:04;;;;;;;18.45;14.55;;;6.60;1.00;;;;;;4992001;28;20430;-66
2020/12/12 09:16:30;;;;;;;16.25;13.13;;;6.60;1.00;;;;;;4976886;28;20416;-65
2020/12/12 09:18:57;;;;;;;17.90;13.85;;;6.70;1.00;;;;;;4973024;28;20484;-64
2020/12/12 09:21:24;;;;;;;18.08;13.60;;;6.70;1.00;;;;;;4972212;28;20427;-62
2020/12/12 09:23:51;;;;;;;18.25;14.05;;;6.70;1.00;;;;;;4972167;28;20419;-63
2020/12/12 09:26:19;;;;;;;19.05;13.95;;;6.70;99.90;;;;;;4971975;28;20472;-65
2020/12/12 09:28:45;;;;;;;16.02;13.25;;;6.70;1.00;;;;;;4971738;28;20416;-63
2020/12/12 09:31:13;;;;;;;17.33;13.57;;;6.70;1.00;;;;;;4971644;28;20419;-63
2020/12/12 09:33:39;;;;;;;16.23;12.30;;;6.70;1.00;;;;;;4971658;28;20432;-64
2020/12/12 09:36:06;;;;;;;17.27;13.97;;;6.70;1.00;;;;;;4971801;28;20479;-64
2020/12/12 09:38:32;;;;;;;17.70;12.55;;;6.80;1.00;;;;;;4972003;28;20455;-66
2020/12/12 09:40:59;;;;;;;16.58;13.25;;;6.90;1.00;;;;;;4971593;28;20416;-65
2020/12/12 09:43:25;;;;;;;15.90;12.63;;;7.00;1.00;;;;;;4971929;28;20775;-64
2020/12/12 09:45:51;;;;;;;15.73;12.48;;;7.10;1.00;;;;;;4971479;28;20774;-64
2020/12/12 09:48:18;;;;;;;13.63;11.48;;;7.10;99.90;;;;;;4972174;28;20416;-64
2020/12/12 09:50:44;;;;;;;13.35;11.35;;;7.20;99.90;;;;;;4971925;28;20416;-63
2020/12/12 09:53:11;;;;;;;14.27;11.57;;;7.20;99.90;;;;;;4971279;28;20424;-65
2020/12/12 09:55:40;;;;;;;13.40;10.75;;;7.30;99.90;;;;;;4971354;28;20435;-65
2020/12/12 09:58:07;;;;;;;15.30;11.30;;;7.20;99.90;;;;;;4971871;28;20948;-63
2020/12/12 10:00:34;;;;;;;12.30;11.00;;;7.30;99.90;;;;;;4971739;28;20412;-65
2020/12/12 10:03:00;;;;;;;11.93;10.18;;;7.40;99.90;;;;;;4972048;28;20416;-64
2020/12/12 10:05:27;;;;;;;11.38;9.70;;;7.40;99.90;;;;;;4971345;28;20420;-63
2020/12/12 10:07:54;;;;;;;11.43;9.90;;;7.30;99.90;;;;;;4971858;28;20420;-63
2020/12/12 10:10:22;;;;;;;12.15;10.30;;;7.40;99.90;;;;;;4971544;28;20888;-64
2020/12/12 10:12:49;;;;;;;11.02;8.65;;;7.40;99.90;;;;;;4971554;28;20490;-64
2020/12/12 10:15:16;;;;;;;12.32;9.95;;;7.30;99.90;;;;;;4972236;28;20905;-63
2020/12/12 10:17:42;;;;;;;11.90;10.38;;;7.40;99.90;;;;;;4971311;28;20507;-63
2020/12/12 10:20:09;;;;;;;11.52;9.57;;;7.50;99.90;;;;;;4971332;28;20527;-63
2020/12/12 10:22:35;;;;;;;9.95;8.85;;;7.50;99.90;;;;;;4971120;28;20960;-63
2020/12/12 10:25:01;;;;;;;9.52;8.50;;;7.60;99.90;;;;;;4971154;28;20412;-67
2020/12/12 10:27:28;;;;;;;9.63;8.63;;;7.70;99.90;;;;;;4971286;28;20494;-65
2020/12/12 10:29:54;;;;;;;9.10;7.90;;;7.70;99.90;;;;;;4970874;28;20884;-65
2020/12/12 10:32:20;;;;;;;10.07;8.70;;;7.70;39.60;;;;;;4971448;28;20482;-65
2020/12/12 10:34:46;;;;;;;10.32;8.50;;;7.70;1.00;;;;;;4971070;28;20813;-64
2020/12/12 10:37:12;;;;;;;8.93;7.50;;;7.60;21.90;;;;;;4971048;28;20420;-64
2020/12/12 10:39:43;;;;;;;8.43;7.60;;;7.60;1.00;;;;;;4971108;28;20416;-64
2020/12/12 10:42:09;;;;;;;8.57;7.68;;;7.60;3.20;;;;;;4971268;28;20506;-65
2020/12/12 10:44:36;;;;;;;8.00;7.07;;;7.60;1.00;;;;;;4971392;28;20467;-62
2020/12/12 10:47:02;;;;;;;8.25;7.40;;;7.60;1.00;;;;;;4971467;28;20482;-67
2020/12/12 10:49:28;;;;;;;7.38;6.68;;;7.50;1.00;;;;;;4974127;28;20412;-64
2020/12/12 10:51:55;;;;;;;8.15;7.35;;;7.50;1.00;;;;;;4974827;28;20408;-64
2020/12/12 10:54:25;;;;;;;9.77;7.80;;;7.50;10.90;;;;;;4973954;28;20522;-64
2020/12/12 10:56:52;;;;;;;7.50;6.70;;;7.40;3.90;;;;;;4974505;28;20875;-63
2020/12/12 10:59:18;;;;;;;9.10;7.20;;;7.40;99.90;;;;;;4974863;28;20952;-65
2020/12/12 11:01:45;;;;;;;8.10;7.13;;;7.40;99.90;;;;;;4974381;28;20420;-65
2020/12/12 11:04:11;;;;;;;8.10;7.10;;;7.40;99.90;;;;;;4974082;28;20475;-63
2020/12/12 11:06:37;;;;;;;7.87;7.00;;;7.50;99.90;;;;;;4974175;28;20451;-63
2020/12/12 11:09:04;;;;;;;7.28;6.57;;;7.50;99.90;;;;;;4973787;28;20419;-62
2020/12/12 11:11:30;;;;;;;9.70;7.65;;;7.40;99.90;;;;;;4975561;28;20852;-64
2020/12/12 11:13:56;;;;;;;13.05;10.48;;;7.40;99.90;;;;;;4974481;28;20428;-63
2020/12/12 11:16:23;;;;;;;9.13;7.70;;;7.50;99.90;;;;;;4974556;28;20837;-64
2020/12/12 11:18:51;;;;;;;7.85;7.05;;;7.50;99.90;;;;;;4974229;28;20420;-64
2020/12/12 11:21:19;;;;;;;7.90;6.90;;;7.50;99.90;;;;;;4973994;28;20435;-63
2020/12/12 11:23:45;;;;;;;8.40;6.83;;;7.50;99.90;;;;;;4974418;28;20452;-65
2020/12/12 11:26:12;;;;;;;9.40;7.95;;;7.50;99.90;;;;;;4974433;28;20416;-64
2020/12/12 11:28:38;;;;;;;7.72;6.90;;;7.50;99.90;;;;;;4974417;28;20416;-62
2020/12/12 11:31:04;;;;;;;7.93;7.13;;;7.60;99.90;;;;;;4988885;28;20423;-65
2020/12/12 11:33:30;;;;;;;9.20;8.27;;;7.60;99.90;;;;;;4993392;28;20410;-65
2020/12/12 11:36:08;;;;;;;9.30;8.30;;;7.60;99.90;;;;;;4992802;28;20486;-63
2020/12/12 11:38:40;;;;;;;10.23;8.13;;;7.70;99.90;;;;;;4992931;28;20499;-63
2020/12/12 11:41:20;;;;;;;8.07;7.10;;;7.70;99.90;;;;;;4993118;28;20425;-64
2020/12/12 11:46:32;;;;;;;7.43;6.57;;;7.70;83.70;;;;;;4984190;28;20413;-63
2020/12/12 11:49:00;;;;;;;7.05;6.43;;;7.70;99.90;;;;;;4993362;28;20422;-63
2020/12/12 11:51:27;;;;;;;9.13;7.40;;;7.70;99.90;;;;;;4992727;28;20982;-63
2020/12/12 11:53:53;;;;;;;8.15;7.35;;;7.70;99.90;;;;;;4992834;28;20410;-65
2020/12/12 11:56:24;;;;;;;8.23;6.95;;;7.60;99.90;;;;;;4992592;28;20418;-65
2020/12/12 11:58:50;;;;;;;8.07;7.28;;;7.70;99.90;;;;;;4992725;28;20460;-66
2020/12/12 12:01:21;;;;;;;10.00;7.40;;;7.70;99.90;;;;;;4992715;28;20418;-65
2020/12/12 12:03:47;;;;;;;9.05;7.60;;;7.70;99.90;;;;;;4992539;28;20972;-65
2020/12/12 12:06:13;;;;;;;8.52;7.63;;;7.80;99.90;;;;;;4992535;28;20415;-65
2020/12/12 12:08:48;;;;;;;8.70;7.80;;;7.80;99.90;;;;;;4992620;28;20418;-65
2020/12/12 12:11:28;;;;;;;8.50;7.60;;;7.90;99.90;;;;;;4992647;28;20940;-65
2020/12/12 12:13:54;;;;;;;8.70;7.90;;;8.00;99.90;;;;;;4992306;28;20906;-66
2020/12/12 12:16:23;;;;;;;8.77;7.78;;;8.00;99.90;;;;;;4992412;28;20419;-63
2020/12/12 12:18:50;;;;;;;8.57;7.78;;;8.00;99.90;;;;;;4992564;28;20414;-63
2020/12/12 12:21:16;;;;;;;8.10;7.30;;;8.00;99.90;;;;;;4991716;28;20899;-64
2020/12/12 12:23:44;;;;;;;8.80;7.47;;;8.00;99.90;;;;;;4992235;28;20430;-64
2020/12/12 12:26:11;;;;;;;8.27;7.47;;;8.00;99.90;;;;;;4992059;28;20427;-62
2020/12/12 12:28:37;;;;;;;8.30;7.50;;;8.10;99.90;;;;;;4992329;28;20519;-62
2020/12/12 12:31:03;;;;;;;7.97;7.18;;;8.10;99.90;;;;;;4992268;28;20953;-63
2020/12/12 12:33:29;;;;;;;7.85;7.05;;;8.10;91.60;;;;;;4992151;28;20410;-63
2020/12/12 12:35:55;;;;;;;8.10;7.30;;;8.10;51.30;;;;;;4991853;28;20461;-66
2020/12/12 12:38:22;;;;;;;7.45;6.75;;;8.20;58.20;;;;;;4991934;28;20476;-64
2020/12/12 12:40:50;;;;;;;7.30;6.67;;;8.20;1.00;;;;;;4991905;28;20819;-63
2020/12/12 12:43:16;;;;;;;7.50;6.85;;;8.20;9.90;;;;;;4992379;28;20418;-65
2020/12/12 12:45:42;;;;;;;7.00;6.40;;;8.20;29.00;;;;;;4991789;28;20423;-64
2020/12/12 12:48:08;;;;;;;8.00;7.30;;;8.30;1.00;;;;;;4992205;28;20465;-64
2020/12/12 12:50:36;;;;;;;7.90;7.10;;;8.30;1.00;;;;;;4991772;28;20418;-63